O'mega — SVJN — position and weather

sailwx.info

Track history (hours):
 
Tides and Currents Weather Stations Pressure Air Temp Water Temp Dewpoint Dewpoint Depression Visibility Wind Speed Wind Dir Waves Ship Positions

O'mega

Last reported at 2017-Dec-14 12:08 UTC. Time now 2017-Dec-15 18:16 UTC.
Position N 37°08' E 004°36'.

Length 80 m; draft 4.4 m.

Type: Passenger vessel. MMSI: 240183000.

Date/timePositionNaut miles runAvg speedWind from/ knotsBaromVisibWave heightAir tempDewpointWater temp
2017-Dec-14 12:08N 37°08' E 004°36'110.6
2017-Dec-14 12:00N 37°09' E 004°38'611.2
2017-Dec-14 11:30N 37°11' E 004°44'611.4
2017-Dec-14 11:00N 37°14' E 004°51'611.4
2017-Dec-14 10:30N 37°15' E 004°58'39011.5
2017-Dec-13 00:33N 38°18' E 013°04'1 9.6
2017-Dec-13 00:28N 38°18' E 013°05'4 9.7
2017-Dec-13 00:00N 38°18' E 013°11'5 9.9
2017-Dec-12 23:30N 38°18' E 013°17'510.1
2017-Dec-12 23:00N 38°18' E 013°24'5 9.9
2017-Dec-12 22:30N 38°18' E 013°30'5 9.6
2017-Dec-12 22:00N 38°18' E 013°36'5 9.5
2017-Dec-12 21:30N 38°18' E 013°42'5 9.4
2017-Dec-12 21:00N 38°18' E 013°48'5 9.3
2017-Dec-12 20:30N 38°19' E 013°54'5 9.4
2017-Dec-12 20:00N 38°19' E 014°00'5 9.6
2017-Dec-12 19:30N 38°19' E 014°06'5 9.9
2017-Dec-12 18:58N 38°19' E 014°13'4 9.7
2017-Dec-12 18:30N 38°19' E 014°19'36 9.9
2017-Dec-12 14:51N 38°20' E 015°05'4 9.9
2017-Dec-12 14:28N 38°20' E 015°10'5 9.9
2017-Dec-12 13:58N 38°20' E 015°16'510.1
2017-Dec-12 13:30N 38°20' E 015°22'510.4
2017-Dec-12 13:00N 38°20' E 015°29'510.0
2017-Dec-12 12:30N 38°20' E 015°35'510.0
2017-Dec-12 12:00N 38°18' E 015°41'5 7.4
2017-Dec-12 11:24N 38°14' E 015°38'410.2
2017-Dec-12 11:00N 38°10' E 015°37'4 8.8
2017-Dec-12 10:30N 38°06' E 015°36'4 8.0
2017-Dec-12 10:00N 38°02' E 015°35'4 8.1
2017-Dec-12 09:28N 37°58' E 015°37'4 8.5
2017-Dec-12 09:00N 37°55' E 015°40'4 8.3
2017-Dec-12 08:29N 37°53' E 015°44'4 8.3
2017-Dec-12 07:57N 37°52' E 015°50'4 8.3
2017-Dec-12 07:28N 37°50' E 015°55'325 9.8
2017-Dec-10 22:20N 38°02' E 022°47'412.6
2017-Dec-10 22:00N 38°00' E 022°51'611.2
2017-Dec-10 21:31N 37°57' E 022°57'3 6.6
2017-Dec-10 21:00N 37°55' E 023°00'5 9.6
2017-Dec-10 20:30N 37°53' E 023°06'612.9
2017-Dec-10 20:00N 37°52' E 023°14'1 1.3
2017-Dec-10 19:31N 37°52' E 023°15'510.4
2017-Dec-10 19:00N 37°51' E 023°21'612.5
2017-Dec-10 18:30N 37°50' E 023°29'510.5
2017-Dec-10 18:00N 37°53' E 023°35'4 8.1
2017-Dec-10 17:30N 37°57' E 023°35'1 1.2
2017-Dec-10 16:58N 37°58' E 023°34'0 0.0
2017-Dec-10 16:25N 37°58' E 023°34'0 0.0
2017-Dec-10 15:58N 37°58' E 023°34'0 0.0
2017-Dec-10 15:28N 37°58' E 023°34'0 0.0
2017-Dec-10 14:58N 37°58' E 023°34'0 0.0
2017-Dec-10 14:28N 37°58' E 023°34'0 0.0
2017-Dec-10 13:55N 37°58' E 023°34'0 0.0
2017-Dec-10 13:28N 37°58' E 023°34'0 0.0
2017-Dec-10 12:58N 37°58' E 023°34'0 0.0
2017-Dec-10 12:28N 37°58' E 023°34'0 0.0
2017-Dec-10 11:58N 37°58' E 023°34'0 0.0
2017-Dec-10 11:28N 37°58' E 023°34'0 0.0
2017-Dec-10 10:55N 37°58' E 023°34'0 0.0
2017-Dec-10 10:28N 37°58' E 023°34'0 0.0
2017-Dec-10 09:58N 37°58' E 023°34'0 0.0
2017-Dec-10 09:28N 37°58' E 023°34'0 0.0
2017-Dec-10 08:58N 37°58' E 023°34'0 0.0
2017-Dec-10 08:28N 37°58' E 023°34'0 0.0
2017-Dec-10 07:58N 37°58' E 023°34'0 0.0
2017-Dec-10 07:28N 37°58' E 023°34'0 0.0
2017-Dec-10 06:58N 37°58' E 023°34'0 0.0
2017-Dec-10 06:28N 37°58' E 023°34'0 0.0
2017-Dec-10 05:58N 37°58' E 023°34'0 0.0
2017-Dec-10 05:28N 37°58' E 023°34'0 0.0
2017-Dec-10 04:58N 37°58' E 023°34'0 0.0
2017-Dec-10 04:28N 37°58' E 023°34'0 0.0
2017-Dec-10 03:58N 37°58' E 023°34'0 0.0
2017-Dec-10 03:28N 37°58' E 023°34'0 0.0
2017-Dec-10 02:58N 37°58' E 023°34'0 0.0
2017-Dec-10 02:28N 37°58' E 023°34'0 0.0
2017-Dec-10 01:58N 37°58' E 023°34'0 0.0
2017-Dec-10 01:28N 37°58' E 023°34'0 0.0
2017-Dec-10 00:58N 37°58' E 023°34'0 0.0
2017-Dec-10 00:28N 37°58' E 023°34'0 0.0
2017-Dec-09 23:55N 37°58' E 023°34'0 0.0
2017-Dec-09 23:25N 37°58' E 023°34'0 0.0
2017-Dec-09 22:58N 37°58' E 023°34'0 0.0
2017-Dec-09 22:28N 37°58' E 023°34'0 0.0
2017-Dec-09 21:58N 37°58' E 023°34'0 0.0
2017-Dec-09 21:28N 37°58' E 023°34'0 0.0
2017-Dec-09 20:58N 37°58' E 023°34'0 0.0
2017-Dec-09 20:28N 37°58' E 023°34'0 0.0
2017-Dec-09 19:58N 37°58' E 023°34'0 0.0
2017-Dec-09 19:28N 37°58' E 023°34'0 0.0
2017-Dec-09 18:58N 37°58' E 023°34'0 0.0
2017-Dec-09 18:28N 37°58' E 023°34'0 0.0
2017-Dec-09 17:58N 37°58' E 023°34'0 0.0
2017-Dec-09 17:28N 37°58' E 023°34'0 0.0
2017-Dec-09 16:58N 37°58' E 023°34'0 0.0
2017-Dec-09 16:28N 37°58' E 023°34'0 0.0
2017-Dec-09 15:58N 37°58' E 023°34'0 0.0
2017-Dec-09 15:28N 37°58' E 023°34'0 0.0
2017-Dec-09 14:58N 37°58' E 023°34'0 0.0
2017-Dec-09 14:28N 37°58' E 023°34'0 0.0
2017-Dec-09 13:58N 37°58' E 023°34'0 0.0
2017-Dec-09 13:28N 37°58' E 023°34'0 0.0
2017-Dec-09 12:58N 37°58' E 023°34'0 0.0
2017-Dec-09 12:25N 37°58' E 023°34'0 0.0
2017-Dec-09 11:58N 37°58' E 023°34'0 0.0
2017-Dec-09 11:28N 37°58' E 023°34'0 0.0
2017-Dec-09 10:55N 37°58' E 023°34'0 0.0
2017-Dec-09 10:28N 37°58' E 023°34'0 0.0
2017-Dec-09 09:58N 37°58' E 023°34'0 0.0
2017-Dec-09 09:25N 37°58' E 023°34'0 0.0
2017-Dec-09 08:58N 37°58' E 023°34'0 0.0
2017-Dec-09 08:28N 37°58' E 023°34'0 0.0
2017-Dec-09 07:58N 37°58' E 023°34'0 0.0
2017-Dec-09 07:28N 37°58' E 023°34'0 0.0
2017-Dec-09 06:55N 37°58' E 023°34'0 0.0
2017-Dec-09 06:25N 37°58' E 023°34'0 0.0
2017-Dec-09 05:58N 37°58' E 023°34'0 0.0
2017-Dec-09 05:28N 37°58' E 023°34'0 0.0
2017-Dec-09 04:58N 37°58' E 023°34'0 0.0
2017-Dec-09 04:25N 37°58' E 023°34'0 0.0
2017-Dec-09 03:58N 37°58' E 023°34'0 0.0
2017-Dec-09 03:25N 37°58' E 023°34'0 0.0
2017-Dec-09 02:58N 37°58' E 023°34'0 0.0
2017-Dec-09 02:28N 37°58' E 023°34'0 0.0
2017-Dec-09 01:58N 37°58' E 023°34'0 0.0
2017-Dec-09 01:28N 37°58' E 023°34'0 0.0
2017-Dec-09 00:58N 37°58' E 023°34'0 0.0
2017-Dec-09 00:28N 37°58' E 023°34'0 0.0
2017-Dec-08 23:58N 37°58' E 023°34'0 0.0
2017-Dec-08 23:28N 37°58' E 023°34'0 0.0
2017-Dec-08 22:58N 37°58' E 023°34'0 0.0
2017-Dec-08 22:28N 37°58' E 023°34'0 0.0
2017-Dec-08 21:58N 37°58' E 023°34'0 0.0
2017-Dec-08 21:28N 37°58' E 023°34'0 0.0
2017-Dec-08 20:52N 37°58' E 023°34'0 0.0
2017-Dec-08 20:25N 37°58' E 023°34'0 0.0
2017-Dec-08 19:58N 37°58' E 023°34'0 0.0
2017-Dec-08 19:28N 37°58' E 023°34'0 0.0
2017-Dec-08 18:58N 37°58' E 023°34'0 0.0
2017-Dec-08 18:28N 37°58' E 023°34'0 0.0
2017-Dec-08 17:58N 37°58' E 023°34'0 0.0
2017-Dec-08 17:28N 37°58' E 023°34'0 0.0
2017-Dec-08 16:55N 37°58' E 023°34'0 0.0
2017-Dec-08 16:28N 37°58' E 023°34'0 0.0
2017-Dec-08 15:58N 37°58' E 023°34'0 0.0
2017-Dec-08 15:22N 37°58' E 023°34'0 0.0
2017-Dec-08 14:55N 37°58' E 023°34'0 0.0
2017-Dec-08 14:25N 37°58' E 023°34'0 0.0
2017-Dec-08 13:58N 37°58' E 023°34'0 0.0
2017-Dec-08 13:25N 37°58' E 023°34'0 0.0
2017-Dec-08 12:58N 37°58' E 023°34'0 0.0
2017-Dec-08 12:28N 37°58' E 023°34'0 0.0
2017-Dec-08 11:58N 37°58' E 023°34'0 0.0
2017-Dec-08 11:25N 37°58' E 023°34'0 0.0
2017-Dec-08 10:58N 37°58' E 023°34'0 0.0
2017-Dec-08 10:28N 37°58' E 023°34'0 0.0
2017-Dec-08 09:58N 37°58' E 023°34'0 0.0
2017-Dec-08 09:28N 37°58' E 023°34'0 0.0
2017-Dec-08 08:58N 37°58' E 023°34'0 0.0
2017-Dec-08 08:25N 37°58' E 023°34'0 0.0
2017-Dec-08 07:58N 37°58' E 023°34'0 0.0
2017-Dec-08 07:28N 37°58' E 023°34'0 0.0
2017-Dec-08 06:58N 37°58' E 023°34'0 0.0
2017-Dec-08 06:25N 37°58' E 023°34'0 0.0
2017-Dec-08 05:58N 37°58' E 023°34'0 0.0
2017-Dec-08 05:28N 37°58' E 023°34'0 0.0
2017-Dec-08 04:55N 37°58' E 023°34'0 0.0
2017-Dec-08 04:28N 37°58' E 023°34'0 0.0
2017-Dec-08 03:58N 37°58' E 023°34'0 0.0
2017-Dec-08 03:28N 37°58' E 023°34'0 0.0
2017-Dec-08 02:55N 37°58' E 023°34'0 0.0
2017-Dec-08 02:28N 37°58' E 023°34'0 0.0
2017-Dec-08 01:55N 37°58' E 023°34'0 0.0
2017-Dec-08 01:28N 37°58' E 023°34'0 0.0
2017-Dec-08 00:58N 37°58' E 023°34'0 0.0
2017-Dec-08 00:28N 37°58' E 023°34'0 0.0
2017-Dec-07 23:58N 37°58' E 023°34'0 0.0
2017-Dec-07 23:28N 37°58' E 023°34'0 0.0
2017-Dec-07 22:58N 37°58' E 023°34'0 0.0
2017-Dec-07 22:28N 37°58' E 023°34'0 0.0
2017-Dec-07 21:58N 37°58' E 023°34'0 0.0
2017-Dec-07 21:28N 37°58' E 023°34'0 0.0
2017-Dec-07 20:58N 37°58' E 023°34'0 0.0
2017-Dec-07 20:28N 37°58' E 023°34'0 0.0
2017-Dec-07 19:58N 37°58' E 023°34'0 0.0
2017-Dec-07 19:28N 37°58' E 023°34'0 0.0
2017-Dec-07 18:58N 37°58' E 023°34'0 0.0
2017-Dec-07 18:28N 37°58' E 023°34'0 0.0
2017-Dec-07 17:58N 37°58' E 023°34'0 0.0
2017-Dec-07 17:28N 37°58' E 023°34'0 0.0
2017-Dec-07 16:58N 37°58' E 023°34'0 0.0
2017-Dec-07 16:28N 37°58' E 023°34'0 0.0
2017-Dec-07 15:58N 37°58' E 023°34'0 0.0
2017-Dec-07 15:28N 37°58' E 023°34'0 0.0
2017-Dec-07 14:58N 37°58' E 023°34'0 0.0
2017-Dec-07 14:28N 37°58' E 023°34'0 0.0
2017-Dec-07 13:58N 37°58' E 023°34'0 0.0
2017-Dec-07 13:28N 37°58' E 023°34'0 0.0
2017-Dec-07 12:58N 37°58' E 023°34'0 0.0
2017-Dec-07 12:28N 37°58' E 023°34'0 0.0
2017-Dec-07 11:58N 37°58' E 023°34'0 0.0
2017-Dec-07 11:28N 37°58' E 023°34'0 0.0
2017-Dec-07 10:58N 37°58' E 023°34'0 0.0
2017-Dec-07 10:28N 37°58' E 023°34'0 0.0
2017-Dec-07 09:58N 37°58' E 023°34'0 0.0
2017-Dec-07 09:28N 37°58' E 023°34'0 0.0
2017-Dec-07 08:55N 37°58' E 023°34'0 0.0
2017-Dec-07 08:28N 37°58' E 023°34'0 0.0
2017-Dec-07 07:58N 37°58' E 023°34'0 0.0
2017-Dec-07 07:28N 37°58' E 023°34'0 0.0
2017-Dec-07 06:58N 37°58' E 023°34'0 0.0
2017-Dec-07 06:28N 37°58' E 023°34'0 0.0
2017-Dec-07 05:58N 37°58' E 023°34'0 0.0
2017-Dec-07 05:28N 37°58' E 023°34'0 0.0
2017-Dec-07 04:58N 37°58' E 023°34'0 0.0
2017-Dec-07 04:28N 37°58' E 023°34'0 0.0
2017-Dec-07 03:58N 37°58' E 023°34'0 0.0
2017-Dec-07 03:25N 37°58' E 023°34'0 0.0
2017-Dec-07 02:58N 37°58' E 023°34'0 0.0
2017-Dec-07 02:28N 37°58' E 023°34'0 0.0
2017-Dec-07 01:58N 37°58' E 023°34'0 0.0
2017-Dec-07 01:28N 37°58' E 023°34'0 0.0
2017-Dec-07 00:58N 37°58' E 023°34'0 0.0
2017-Dec-07 00:28N 37°58' E 023°34'0 0.0
2017-Dec-06 23:58N 37°58' E 023°34'0 0.0
2017-Dec-06 23:28N 37°58' E 023°34'0 0.0
2017-Dec-06 22:58N 37°58' E 023°34'0 0.0
2017-Dec-06 22:28N 37°58' E 023°34'0 0.0
2017-Dec-06 21:58N 37°58' E 023°34'0 0.0
2017-Dec-06 21:28N 37°58' E 023°34'0 0.0
2017-Dec-06 20:58N 37°58' E 023°34'  
Track history (hours):
 
Tides and Currents Weather Stations Pressure Air Temp Water Temp Dewpoint Dewpoint Depression Visibility Wind Speed Wind Dir Waves Ship Positions

O'mega

Last reported at 2017-Dec-14 12:08 UTC. Time now 2017-Dec-15 18:16 UTC.
Position N 37°08' E 004°36'.

Length 80 m; draft 4.4 m.

Type: Passenger vessel. MMSI: 240183000.

Date/timePositionNaut miles runAvg speedWind from/ knotsBaromVisibWave heightAir tempDewpointWater temp
2017-Dec-14 12:08N 37°08' E 004°36'110.6
2017-Dec-14 12:00N 37°09' E 004°38'611.2
2017-Dec-14 11:30N 37°11' E 004°44'611.4
2017-Dec-14 11:00N 37°14' E 004°51'611.4
2017-Dec-14 10:30N 37°15' E 004°58'39011.5
2017-Dec-13 00:33N 38°18' E 013°04'1 9.6
2017-Dec-13 00:28N 38°18' E 013°05'4 9.7
2017-Dec-13 00:00N 38°18' E 013°11'5 9.9
2017-Dec-12 23:30N 38°18' E 013°17'510.1
2017-Dec-12 23:00N 38°18' E 013°24'5 9.9
2017-Dec-12 22:30N 38°18' E 013°30'5 9.6
2017-Dec-12 22:00N 38°18' E 013°36'5 9.5
2017-Dec-12 21:30N 38°18' E 013°42'5 9.4
2017-Dec-12 21:00N 38°18' E 013°48'5 9.3
2017-Dec-12 20:30N 38°19' E 013°54'5 9.4
2017-Dec-12 20:00N 38°19' E 014°00'5 9.6
2017-Dec-12 19:30N 38°19' E 014°06'5 9.9
2017-Dec-12 18:58N 38°19' E 014°13'4 9.7
2017-Dec-12 18:30N 38°19' E 014°19'36 9.9
2017-Dec-12 14:51N 38°20' E 015°05'4 9.9
2017-Dec-12 14:28N 38°20' E 015°10'5 9.9
2017-Dec-12 13:58N 38°20' E 015°16'510.1
2017-Dec-12 13:30N 38°20' E 015°22'510.4
2017-Dec-12 13:00N 38°20' E 015°29'510.0
2017-Dec-12 12:30N 38°20' E 015°35'510.0
2017-Dec-12 12:00N 38°18' E 015°41'5 7.4
2017-Dec-12 11:24N 38°14' E 015°38'410.2
2017-Dec-12 11:00N 38°10' E 015°37'4 8.8
2017-Dec-12 10:30N 38°06' E 015°36'4 8.0
2017-Dec-12 10:00N 38°02' E 015°35'4 8.1
2017-Dec-12 09:28N 37°58' E 015°37'4 8.5
2017-Dec-12 09:00N 37°55' E 015°40'4 8.3
2017-Dec-12 08:29N 37°53' E 015°44'4 8.3
2017-Dec-12 07:57N 37°52' E 015°50'4 8.3
2017-Dec-12 07:28N 37°50' E 015°55'325 9.8
2017-Dec-10 22:20N 38°02' E 022°47'412.6
2017-Dec-10 22:00N 38°00' E 022°51'611.2
2017-Dec-10 21:31N 37°57' E 022°57'3 6.6
2017-Dec-10 21:00N 37°55' E 023°00'5 9.6
2017-Dec-10 20:30N 37°53' E 023°06'612.9
2017-Dec-10 20:00N 37°52' E 023°14'1 1.3
2017-Dec-10 19:31N 37°52' E 023°15'510.4
2017-Dec-10 19:00N 37°51' E 023°21'612.5
2017-Dec-10 18:30N 37°50' E 023°29'510.5
2017-Dec-10 18:00N 37°53' E 023°35'4 8.1
2017-Dec-10 17:30N 37°57' E 023°35'1 1.2
2017-Dec-10 16:58N 37°58' E 023°34'0 0.0
2017-Dec-10 16:25N 37°58' E 023°34'0 0.0
2017-Dec-10 15:58N 37°58' E 023°34'0 0.0
2017-Dec-10 15:28N 37°58' E 023°34'0 0.0
2017-Dec-10 14:58N 37°58' E 023°34'0 0.0
2017-Dec-10 14:28N 37°58' E 023°34'0 0.0
2017-Dec-10 13:55N 37°58' E 023°34'0 0.0
2017-Dec-10 13:28N 37°58' E 023°34'0 0.0
2017-Dec-10 12:58N 37°58' E 023°34'0 0.0
2017-Dec-10 12:28N 37°58' E 023°34'0 0.0
2017-Dec-10 11:58N 37°58' E 023°34'0 0.0
2017-Dec-10 11:28N 37°58' E 023°34'0 0.0
2017-Dec-10 10:55N 37°58' E 023°34'0 0.0
2017-Dec-10 10:28N 37°58' E 023°34'0 0.0
2017-Dec-10 09:58N 37°58' E 023°34'0 0.0
2017-Dec-10 09:28N 37°58' E 023°34'0 0.0
2017-Dec-10 08:58N 37°58' E 023°34'0 0.0
2017-Dec-10 08:28N 37°58' E 023°34'0 0.0
2017-Dec-10 07:58N 37°58' E 023°34'0 0.0
2017-Dec-10 07:28N 37°58' E 023°34'0 0.0
2017-Dec-10 06:58N 37°58' E 023°34'0 0.0
2017-Dec-10 06:28N 37°58' E 023°34'0 0.0
2017-Dec-10 05:58N 37°58' E 023°34'0 0.0
2017-Dec-10 05:28N 37°58' E 023°34'0 0.0
2017-Dec-10 04:58N 37°58' E 023°34'0 0.0
2017-Dec-10 04:28N 37°58' E 023°34'0 0.0
2017-Dec-10 03:58N 37°58' E 023°34'0 0.0
2017-Dec-10 03:28N 37°58' E 023°34'0 0.0
2017-Dec-10 02:58N 37°58' E 023°34'0 0.0
2017-Dec-10 02:28N 37°58' E 023°34'0 0.0
2017-Dec-10 01:58N 37°58' E 023°34'0 0.0
2017-Dec-10 01:28N 37°58' E 023°34'0 0.0
2017-Dec-10 00:58N 37°58' E 023°34'0 0.0
2017-Dec-10 00:28N 37°58' E 023°34'0 0.0
2017-Dec-09 23:55N 37°58' E 023°34'0 0.0
2017-Dec-09 23:25N 37°58' E 023°34'0 0.0
2017-Dec-09 22:58N 37°58' E 023°34'0 0.0
2017-Dec-09 22:28N 37°58' E 023°34'0 0.0
2017-Dec-09 21:58N 37°58' E 023°34'0 0.0
2017-Dec-09 21:28N 37°58' E 023°34'0 0.0
2017-Dec-09 20:58N 37°58' E 023°34'0 0.0
2017-Dec-09 20:28N 37°58' E 023°34'0 0.0
2017-Dec-09 19:58N 37°58' E 023°34'0 0.0
2017-Dec-09 19:28N 37°58' E 023°34'0 0.0
2017-Dec-09 18:58N 37°58' E 023°34'0 0.0
2017-Dec-09 18:28N 37°58' E 023°34'0 0.0
2017-Dec-09 17:58N 37°58' E 023°34'0 0.0
2017-Dec-09 17:28N 37°58' E 023°34'0 0.0
2017-Dec-09 16:58N 37°58' E 023°34'0 0.0
2017-Dec-09 16:28N 37°58' E 023°34'0 0.0
2017-Dec-09 15:58N 37°58' E 023°34'0 0.0
2017-Dec-09 15:28N 37°58' E 023°34'0 0.0
2017-Dec-09 14:58N 37°58' E 023°34'0 0.0
2017-Dec-09 14:28N 37°58' E 023°34'0 0.0
2017-Dec-09 13:58N 37°58' E 023°34'0 0.0
2017-Dec-09 13:28N 37°58' E 023°34'0 0.0
2017-Dec-09 12:58N 37°58' E 023°34'0 0.0
2017-Dec-09 12:25N 37°58' E 023°34'0 0.0
2017-Dec-09 11:58N 37°58' E 023°34'0 0.0
2017-Dec-09 11:28N 37°58' E 023°34'0 0.0
2017-Dec-09 10:55N 37°58' E 023°34'0 0.0
2017-Dec-09 10:28N 37°58' E 023°34'0 0.0
2017-Dec-09 09:58N 37°58' E 023°34'0 0.0
2017-Dec-09 09:25N 37°58' E 023°34'0 0.0
2017-Dec-09 08:58N 37°58' E 023°34'0 0.0
2017-Dec-09 08:28N 37°58' E 023°34'0 0.0
2017-Dec-09 07:58N 37°58' E 023°34'0 0.0
2017-Dec-09 07:28N 37°58' E 023°34'0 0.0
2017-Dec-09 06:55N 37°58' E 023°34'0 0.0
2017-Dec-09 06:25N 37°58' E 023°34'0 0.0
2017-Dec-09 05:58N 37°58' E 023°34'0 0.0
2017-Dec-09 05:28N 37°58' E 023°34'0 0.0
2017-Dec-09 04:58N 37°58' E 023°34'0 0.0
2017-Dec-09 04:25N 37°58' E 023°34'0 0.0
2017-Dec-09 03:58N 37°58' E 023°34'0 0.0
2017-Dec-09 03:25N 37°58' E 023°34'0 0.0
2017-Dec-09 02:58N 37°58' E 023°34'0 0.0
2017-Dec-09 02:28N 37°58' E 023°34'0 0.0
2017-Dec-09 01:58N 37°58' E 023°34'0 0.0
2017-Dec-09 01:28N 37°58' E 023°34'0 0.0
2017-Dec-09 00:58N 37°58' E 023°34'0 0.0
2017-Dec-09 00:28N 37°58' E 023°34'0 0.0
2017-Dec-08 23:58N 37°58' E 023°34'0 0.0
2017-Dec-08 23:28N 37°58' E 023°34'0 0.0
2017-Dec-08 22:58N 37°58' E 023°34'0 0.0
2017-Dec-08 22:28N 37°58' E 023°34'0 0.0
2017-Dec-08 21:58N 37°58' E 023°34'0 0.0
2017-Dec-08 21:28N 37°58' E 023°34'0 0.0
2017-Dec-08 20:52N 37°58' E 023°34'0 0.0
2017-Dec-08 20:25N 37°58' E 023°34'0 0.0
2017-Dec-08 19:58N 37°58' E 023°34'0 0.0
2017-Dec-08 19:28N 37°58' E 023°34'0 0.0
2017-Dec-08 18:58N 37°58' E 023°34'0 0.0
2017-Dec-08 18:28N 37°58' E 023°34'0 0.0
2017-Dec-08 17:58N 37°58' E 023°34'0 0.0
2017-Dec-08 17:28N 37°58' E 023°34'0 0.0
2017-Dec-08 16:55N 37°58' E 023°34'0 0.0
2017-Dec-08 16:28N 37°58' E 023°34'0 0.0
2017-Dec-08 15:58N 37°58' E 023°34'0 0.0
2017-Dec-08 15:22N 37°58' E 023°34'0 0.0
2017-Dec-08 14:55N 37°58' E 023°34'0 0.0
2017-Dec-08 14:25N 37°58' E 023°34'0 0.0
2017-Dec-08 13:58N 37°58' E 023°34'0 0.0
2017-Dec-08 13:25N 37°58' E 023°34'0 0.0
2017-Dec-08 12:58N 37°58' E 023°34'0 0.0
2017-Dec-08 12:28N 37°58' E 023°34'0 0.0
2017-Dec-08 11:58N 37°58' E 023°34'0 0.0
2017-Dec-08 11:25N 37°58' E 023°34'0 0.0
2017-Dec-08 10:58N 37°58' E 023°34'0 0.0
2017-Dec-08 10:28N 37°58' E 023°34'0 0.0
2017-Dec-08 09:58N 37°58' E 023°34'0 0.0
2017-Dec-08 09:28N 37°58' E 023°34'0 0.0
2017-Dec-08 08:58N 37°58' E 023°34'0 0.0
2017-Dec-08 08:25N 37°58' E 023°34'0 0.0
2017-Dec-08 07:58N 37°58' E 023°34'0 0.0
2017-Dec-08 07:28N 37°58' E 023°34'0 0.0
2017-Dec-08 06:58N 37°58' E 023°34'0 0.0
2017-Dec-08 06:25N 37°58' E 023°34'0 0.0
2017-Dec-08 05:58N 37°58' E 023°34'0 0.0
2017-Dec-08 05:28N 37°58' E 023°34'0 0.0
2017-Dec-08 04:55N 37°58' E 023°34'0 0.0
2017-Dec-08 04:28N 37°58' E 023°34'0 0.0
2017-Dec-08 03:58N 37°58' E 023°34'0 0.0
2017-Dec-08 03:28N 37°58' E 023°34'0 0.0
2017-Dec-08 02:55N 37°58' E 023°34'0 0.0
2017-Dec-08 02:28N 37°58' E 023°34'0 0.0
2017-Dec-08 01:55N 37°58' E 023°34'0 0.0
2017-Dec-08 01:28N 37°58' E 023°34'0 0.0
2017-Dec-08 00:58N 37°58' E 023°34'0 0.0
2017-Dec-08 00:28N 37°58' E 023°34'0 0.0
2017-Dec-07 23:58N 37°58' E 023°34'0 0.0
2017-Dec-07 23:28N 37°58' E 023°34'0 0.0
2017-Dec-07 22:58N 37°58' E 023°34'0 0.0
2017-Dec-07 22:28N 37°58' E 023°34'0 0.0
2017-Dec-07 21:58N 37°58' E 023°34'0 0.0
2017-Dec-07 21:28N 37°58' E 023°34'0 0.0
2017-Dec-07 20:58N 37°58' E 023°34'0 0.0
2017-Dec-07 20:28N 37°58' E 023°34'0 0.0
2017-Dec-07 19:58N 37°58' E 023°34'0 0.0
2017-Dec-07 19:28N 37°58' E 023°34'0 0.0
2017-Dec-07 18:58N 37°58' E 023°34'0 0.0
2017-Dec-07 18:28N 37°58' E 023°34'0 0.0
2017-Dec-07 17:58N 37°58' E 023°34'0 0.0
2017-Dec-07 17:28N 37°58' E 023°34'0 0.0
2017-Dec-07 16:58N 37°58' E 023°34'0 0.0
2017-Dec-07 16:28N 37°58' E 023°34'0 0.0
2017-Dec-07 15:58N 37°58' E 023°34'0 0.0
2017-Dec-07 15:28N 37°58' E 023°34'0 0.0
2017-Dec-07 14:58N 37°58' E 023°34'0 0.0
2017-Dec-07 14:28N 37°58' E 023°34'0 0.0
2017-Dec-07 13:58N 37°58' E 023°34'0 0.0
2017-Dec-07 13:28N 37°58' E 023°34'0 0.0
2017-Dec-07 12:58N 37°58' E 023°34'0 0.0
2017-Dec-07 12:28N 37°58' E 023°34'0 0.0
2017-Dec-07 11:58N 37°58' E 023°34'0 0.0
2017-Dec-07 11:28N 37°58' E 023°34'0 0.0
2017-Dec-07 10:58N 37°58' E 023°34'0 0.0
2017-Dec-07 10:28N 37°58' E 023°34'0 0.0
2017-Dec-07 09:58N 37°58' E 023°34'0 0.0
2017-Dec-07 09:28N 37°58' E 023°34'0 0.0
2017-Dec-07 08:55N 37°58' E 023°34'0 0.0
2017-Dec-07 08:28N 37°58' E 023°34'0 0.0
2017-Dec-07 07:58N 37°58' E 023°34'0 0.0
2017-Dec-07 07:28N 37°58' E 023°34'0 0.0
2017-Dec-07 06:58N 37°58' E 023°34'0 0.0
2017-Dec-07 06:28N 37°58' E 023°34'0 0.0
2017-Dec-07 05:58N 37°58' E 023°34'0 0.0
2017-Dec-07 05:28N 37°58' E 023°34'0 0.0
2017-Dec-07 04:58N 37°58' E 023°34'0 0.0
2017-Dec-07 04:28N 37°58' E 023°34'0 0.0
2017-Dec-07 03:58N 37°58' E 023°34'0 0.0
2017-Dec-07 03:25N 37°58' E 023°34'0 0.0
2017-Dec-07 02:58N 37°58' E 023°34'0 0.0
2017-Dec-07 02:28N 37°58' E 023°34'0 0.0
2017-Dec-07 01:58N 37°58' E 023°34'0 0.0
2017-Dec-07 01:28N 37°58' E 023°34'0 0.0
2017-Dec-07 00:58N 37°58' E 023°34'0 0.0
2017-Dec-07 00:28N 37°58' E 023°34'0 0.0
2017-Dec-06 23:58N 37°58' E 023°34'0 0.0
2017-Dec-06 23:28N 37°58' E 023°34'0 0.0
2017-Dec-06 22:58N 37°58' E 023°34'0 0.0
2017-Dec-06 22:28N 37°58' E 023°34'0 0.0
2017-Dec-06 21:58N 37°58' E 023°34'0 0.0
2017-Dec-06 21:28N 37°58' E 023°34'0 0.0
2017-Dec-06 20:58N 37°58' E 023°34'  

Dump ship's entire track history